Time;durP1;ratioP1;P1;durP2;ratioP2;P2;SDS_P1;SDS_P2;PMS_P1;PMS_P2;Temp;Humidity;BMP_temperature;BMP_pressure;BME280_temperature;BME280_humidity;BME280_pressure;Samples;Min_cycle;Max_cycle;Signal;HPM_P1;HPM_P2
2022/04/16 00:01:26;;;;;;;;;;;;;;;20.87;50.16;102680.16;5009436;28;4523;-49
2022/04/16 00:03:52;;;;;;;;;;;;;;;20.88;49.78;102690.28;5015071;28;4346;-50
2022/04/16 00:06:19;;;;;;;;;;;;;;;20.86;49.98;102672.84;5009202;28;4237;-47
2022/04/16 00:08:45;;;;;;;;;;;;;;;20.87;49.97;102682.28;5011744;28;4256;-48
2022/04/16 00:11:11;;;;;;;;;;;;;;;20.85;49.76;102690.75;5012425;28;4118;-49
2022/04/16 00:13:38;;;;;;;;;;;;;;;20.87;49.87;102676.53;5009419;28;4263;-49
2022/04/16 00:16:04;;;;;;;;;;;;;;;20.87;50.04;102683.03;5010638;28;5560;-51
2022/04/16 00:18:31;;;;;;;;;;;;;;;20.86;50.01;102675.75;5012143;28;4436;-52
2022/04/16 00:20:58;;;;;;;;;;;;;;;20.87;49.87;102676.53;5011770;28;4265;-49
2022/04/16 00:23:25;;;;;;;;;;;;;;;20.85;49.62;102680.00;5011328;28;4166;-51
2022/04/16 00:25:53;;;;;;;;;;;;;;;20.86;49.66;102681.50;5009263;28;4258;-50
2022/04/16 00:28:20;;;;;;;;;;;;;;;20.85;49.55;102685.75;5012209;28;4138;-48
2022/04/16 00:30:46;;;;;;;;;;;;;;;20.87;49.37;102688.78;5007408;28;4398;-48
2022/04/16 00:33:13;;;;;;;;;;;;;;;20.85;49.37;102688.63;5011270;28;5582;-50
2022/04/16 00:35:42;;;;;;;;;;;;;;;20.85;49.59;102691.50;5010620;28;4056;-50
2022/04/16 00:38:08;;;;;;;;;;;;;;;20.85;49.38;102694.41;5011753;28;4242;-52
2022/04/16 00:40:34;;;;;;;;;;;;;;;20.83;49.39;102691.38;5011863;28;4075;-51
2022/04/16 00:43:02;;;;;;;;;;;;;;;20.80;49.42;102701.22;5005726;28;4222;-48
2022/04/16 00:45:29;;;;;;;;;;;;;;;20.79;49.24;102693.19;5013861;28;4269;-49
2022/04/16 00:47:56;;;;;;;;;;;;;;;20.79;49.49;102699.69;5011577;28;4489;-51
2022/04/16 00:50:22;;;;;;;;;;;;;;;20.80;49.81;102703.31;5015311;28;5302;-49
2022/04/16 00:52:49;;;;;;;;;;;;;;;20.82;49.77;102698.50;5010640;28;4323;-51
2022/04/16 00:55:15;;;;;;;;;;;;;;;20.81;49.94;102691.22;5011290;28;4168;-51
2022/04/16 00:57:42;;;;;;;;;;;;;;;20.81;50.12;102696.22;5010323;28;4609;-49
2022/04/16 01:00:09;;;;;;;;;;;;;;;20.81;50.11;102691.22;5010990;28;4157;-51
2022/04/16 01:02:36;;;;;;;;;;;;;;;20.81;50.12;102688.34;5011032;28;4073;-51
2022/04/16 01:05:04;;;;;;;;;;;;;;;20.81;50.03;102694.09;5014721;28;4091;-49
2022/04/16 01:07:30;;;;;;;;;;;;;;;20.81;50.16;102701.97;5012156;28;4201;-48
2022/04/16 01:09:57;;;;;;;;;;;;;;;20.81;49.94;102696.22;5013318;28;4258;-51
2022/04/16 01:12:23;;;;;;;;;;;;;;;20.79;49.96;102696.81;5011001;28;4651;-49
2022/04/16 01:14:50;;;;;;;;;;;;;;;20.80;49.85;102709.09;5013373;28;4415;-50
2022/04/16 01:17:17;;;;;;;;;;;;;;;20.80;49.78;102711.97;5009732;28;4089;-50
2022/04/16 01:19:44;;;;;;;;;;;;;;;20.78;49.91;102701.06;5012469;28;4266;-48
2022/04/16 01:22:13;;;;;;;;;;;;;;;20.77;49.79;102710.31;5009286;28;4302;-49
2022/04/16 01:24:43;;;;;;;;;;;;;;;20.78;49.70;102717.59;5013240;28;4270;-50
2022/04/16 01:27:10;;;;;;;;;;;;;;;20.79;49.61;102704.72;5011845;28;4233;-52
2022/04/16 01:29:36;;;;;;;;;;;;;;;20.77;49.38;102708.19;5012702;28;4503;-49
2022/04/16 01:32:03;;;;;;;;;;;;;;;20.79;49.44;102713.34;5009247;28;5336;-55
2022/04/16 01:34:30;;;;;;;;;;;;;;;20.79;49.36;102711.22;5011385;28;4136;-48
2022/04/16 01:37:02;;;;;;;;;;;;;;;20.79;49.29;102707.59;5014018;28;4083;-49
2022/04/16 01:39:28;;;;;;;;;;;;;;;20.80;49.39;102707.00;5016504;28;5990;-50
2022/04/16 01:41:54;;;;;;;;;;;;;;;20.80;49.26;102714.84;5016008;28;4533;-48
2022/04/16 01:44:21;;;;;;;;;;;;;;;20.79;49.20;102713.34;5014406;28;4574;-51
2022/04/16 01:46:47;;;;;;;;;;;;;;;20.79;49.29;102710.47;5013085;28;4252;-51
2022/04/16 01:49:13;;;;;;;;;;;;;;;20.78;49.05;102706.84;5013982;28;6444;-50
2022/04/16 01:51:40;;;;;;;;;;;;;;;20.79;49.11;102714.09;5013031;28;4355;-49
2022/04/16 01:54:06;;;;;;;;;;;;;;;20.77;49.26;102708.19;5013990;28;4232;-50
2022/04/16 01:56:33;;;;;;;;;;;;;;;20.74;49.29;102702.91;5013724;28;4256;-50
2022/04/16 01:58:59;;;;;;;;;;;;;;;20.74;49.12;102714.41;5014674;28;4252;-51
2022/04/16 02:01:25;;;;;;;;;;;;;;;20.73;49.27;102707.13;5014065;28;5331;-48
2022/04/16 02:03:52;;;;;;;;;;;;;;;20.77;49.26;102713.94;5008674;28;4254;-48
2022/04/16 02:06:19;;;;;;;;;;;;;;;20.77;49.30;102710.31;5016344;28;4243;-50
2022/04/16 02:08:48;;;;;;;;;;;;;;;20.78;49.38;102706.84;5014946;28;4200;-48
2022/04/16 02:11:14;;;;;;;;;;;;;;;20.79;49.77;102713.34;5012171;28;5275;-52
2022/04/16 02:13:41;;;;;;;;;;;;;;;20.79;49.85;102710.47;5012734;28;4258;-48
2022/04/16 02:16:07;;;;;;;;;;;;;;;20.77;49.92;102711.06;5014255;28;4172;-51
2022/04/16 02:18:33;;;;;;;;;;;;;;;20.79;49.71;102716.97;5012710;28;5339;-50
2022/04/16 02:21:00;;;;;;;;;;;;;;;20.79;49.73;102721.97;5013075;28;4430;-47
2022/04/16 02:23:26;;;;;;;;;;;;;;;20.76;49.45;102723.97;5011785;28;4534;-50
2022/04/16 02:25:53;;;;;;;;;;;;;;;20.76;49.56;102723.97;5017189;28;4178;-51
2022/04/16 02:28:21;;;;;;;;;;;;;;;20.75;49.69;102733.94;5011928;28;5319;-48
2022/04/16 02:30:48;;;;;;;;;;;;;;;20.74;49.58;102735.31;5014994;28;4379;-48
2022/04/16 02:33:14;;;;;;;;;;;;;;;20.72;49.43;102735.16;5012474;28;4381;-48
2022/04/16 02:35:40;;;;;;;;;;;;;;;20.75;49.32;102733.19;5014212;28;4062;-50
2022/04/16 02:38:07;;;;;;;;;;;;;;;20.74;49.41;102740.31;5015354;28;4175;-49
2022/04/16 02:40:33;;;;;;;;;;;;;;;20.74;49.35;102741.06;5012328;28;4194;-49
2022/04/16 02:43:00;;;;;;;;;;;;;;;20.79;49.21;102745.00;5016674;28;4247;-51
2022/04/16 02:48:11;;;;;;;;;;;;;;;20.79;49.35;102745.78;5011008;28;4357;-48
2022/04/16 02:50:37;;;;;;;;;;;;;;;20.80;49.80;102746.53;5014496;28;4220;-49
2022/04/16 02:53:04;;;;;;;;;;;;;;;20.79;49.74;102754.41;5007929;28;5317;-49
2022/04/16 02:55:30;;;;;;;;;;;;;;;20.80;49.90;102746.53;5015512;28;4236;-48
2022/04/16 02:57:57;;;;;;;;;;;;;;;20.80;49.75;102750.19;5015492;28;4215;-50
2022/04/16 03:00:24;;;;;;;;;;;;;;;20.77;49.81;102754.25;5015178;28;5246;-52
2022/04/16 03:02:51;;;;;;;;;;;;;;;20.81;49.55;102765.31;5015325;28;4347;-50
2022/04/16 03:05:18;;;;;;;;;;;;;;;20.81;49.74;102777.59;5015805;28;4121;-51
2022/04/16 03:07:45;;;;;;;;;;;;;;;20.80;49.61;102781.84;5014740;28;4178;-49
2022/04/16 03:10:12;;;;;;;;;;;;;;;20.79;49.90;102780.31;5012754;28;3998;-50
2022/04/16 03:12:42;;;;;;;;;;;;;;;20.81;49.84;102777.59;5009227;28;4026;-52
2022/04/16 03:17:54;;;;;;;;;;;;;;;20.83;49.92;102785.63;5012996;28;4077;-50
2022/04/16 03:20:20;;;;;;;;;;;;;;;20.84;49.93;102805.16;5013615;28;4184;-51
2022/04/16 03:22:47;;;;;;;;;;;;;;;20.85;49.81;102806.69;5014827;28;4257;-51
2022/04/16 03:25:13;;;;;;;;;;;;;;;20.82;49.88;102807.94;5013000;28;4200;-49
2022/04/16 03:27:39;;;;;;;;;;;;;;;20.85;49.67;102805.94;5014447;28;4076;-49
2022/04/16 03:30:06;;;;;;;;;;;;;;;20.83;50.07;102806.56;5013158;28;4076;-51
2022/04/16 03:32:32;;;;;;;;;;;;;;;20.81;50.04;102812.16;5012141;28;4159;-51
2022/04/16 03:34:59;;;;;;;;;;;;;;;20.82;49.80;102810.81;4997295;28;4183;-48
2022/04/16 03:37:25;;;;;;;;;;;;;;;20.83;49.75;102809.44;5011660;28;4182;-48
2022/04/16 03:39:51;;;;;;;;;;;;;;;20.80;50.04;102816.41;5013656;28;4191;-52
2022/04/16 03:42:18;;;;;;;;;;;;;;;20.79;50.06;102817.00;5015648;28;4293;-48
2022/04/16 03:44:44;;;;;;;;;;;;;;;20.79;49.96;102814.88;5013374;28;5526;-51
2022/04/16 03:47:11;;;;;;;;;;;;;;;20.78;50.14;102821.25;5017933;28;4538;-49
2022/04/16 03:49:37;;;;;;;;;;;;;;;20.81;49.59;102823.66;5016056;28;5165;-50
2022/04/16 03:52:04;;;;;;;;;;;;;;;20.81;49.80;102823.66;5015933;28;4656;-48
2022/04/16 04:00:00;;;;;;;;;;;;;;;20.86;49.77;102825.47;5013665;28;4303;-49
2022/04/16 04:02:38;;;;;;;;;;;;;;;20.84;49.72;102822.44;5009825;28;6587;-50
2022/04/16 04:05:06;;;;;;;;;;;;;;;20.85;49.89;102829.75;5008086;28;5394;-49
2022/04/16 04:07:32;;;;;;;;;;;;;;;20.82;49.86;102828.09;5013955;28;4257;-49
2022/04/16 04:09:59;;;;;;;;;;;;;;;20.83;49.82;102840.34;5015153;28;4718;-48
2022/04/16 04:12:25;;;;;;;;;;;;;;;20.82;50.04;102842.47;5011815;28;4494;-49
2022/04/16 04:14:51;;;;;;;;;;;;;;;20.82;49.94;102842.47;5014323;28;4242;-49
2022/04/16 04:17:18;;;;;;;;;;;;;;;20.86;49.52;102847.78;5012980;28;4201;-49
2022/04/16 04:19:44;;;;;;;;;;;;;;;20.87;49.68;102849.31;5013174;28;5335;-49
2022/04/16 04:22:11;;;;;;;;;;;;;;;20.87;49.77;102843.53;5010680;28;4601;-48
2022/04/16 04:24:38;;;;;;;;;;;;;;;20.83;49.77;102849.75;5011753;28;4203;-48
2022/04/16 04:27:04;;;;;;;;;;;;;;;20.86;49.72;102859.28;5010105;28;4234;-52
2022/04/16 04:29:30;;;;;;;;;;;;;;;20.84;50.03;102853.38;5011138;28;5182;-49
2022/04/16 04:31:57;;;;;;;;;;;;;;;20.80;49.99;102856.72;5010160;28;4313;-50
2022/04/16 04:34:23;;;;;;;;;;;;;;;20.82;49.96;102859.75;5011451;28;4330;-49
2022/04/16 04:36:50;;;;;;;;;;;;;;;20.84;49.81;102868.53;5014525;28;4179;-49
2022/04/16 04:39:22;;;;;;;;;;;;;;;20.83;49.77;102872.78;5013923;28;4134;-49
2022/04/16 04:41:48;;;;;;;;;;;;;;;20.85;49.75;102858.53;5014891;28;4231;-50
2022/04/16 04:44:15;;;;;;;;;;;;;;;20.83;49.97;102866.28;5009383;28;4511;-50
2022/04/16 04:46:41;;;;;;;;;;;;;;;20.83;49.68;102872.78;5008930;28;4118;-48
2022/04/16 04:49:08;;;;;;;;;;;;;;;20.82;49.84;102879.91;5011915;28;5239;-50
2022/04/16 04:51:37;;;;;;;;;;;;;;;20.86;49.92;102873.69;5010772;28;4110;-50
2022/04/16 04:54:04;;;;;;;;;;;;;;;20.85;49.88;102875.81;5011413;28;5318;-50
2022/04/16 04:56:30;;;;;;;;;;;;;;;20.86;49.72;102891.72;5012297;28;5314;-48
2022/04/16 04:58:57;;;;;;;;;;;;;;;20.85;49.79;102884.47;5012857;28;4247;-47
2022/04/16 05:01:23;;;;;;;;;;;;;;;20.85;49.70;102880.81;5015666;28;4266;-48
2022/04/16 05:03:49;;;;;;;;;;;;;;;20.87;49.85;102890.38;5015949;28;5798;-48
2022/04/16 05:06:16;;;;;;;;;;;;;;;20.87;49.79;102893.25;5016344;28;4446;-48
2022/04/16 05:08:43;;;;;;;;;;;;;;;20.90;49.74;102889.16;5017560;28;4112;-48
2022/04/16 05:11:10;;;;;;;;;;;;;;;20.87;49.70;102893.25;5016643;28;5365;-48
2022/04/16 05:13:36;;;;;;;;;;;;;;;20.82;49.91;102891.44;5015237;28;5662;-49
2022/04/16 05:16:03;;;;;;;;;;;;;;;20.87;49.75;102887.50;5014694;28;4260;-57
2022/04/16 05:18:31;;;;;;;;;;;;;;;20.88;49.62;102894.75;5014768;28;5365;-48
2022/04/16 05:20:57;;;;;;;;;;;;;;;20.86;49.78;102900.38;5014666;28;4341;-47
2022/04/16 05:23:24;;;;;;;;;;;;;;;20.83;49.84;102906.59;5018904;28;4075;-51
2022/04/16 05:25:51;;;;;;;;;;;;;;;20.83;49.88;102909.47;5017508;28;4174;-50
2022/04/16 05:28:17;;;;;;;;;;;;;;;20.87;49.69;102913.41;5014170;28;4299;-47
2022/04/16 05:30:54;;;;;;;;;;;;;;;20.87;49.51;102919.16;5014311;28;4320;-49
2022/04/16 05:36:06;;;;;;;;;;;;;;;20.86;49.73;102917.63;5017884;28;4169;-50
2022/04/16 05:38:32;;;;;;;;;;;;;;;20.84;49.41;102926.13;5014841;28;4223;-52
2022/04/16 05:40:58;;;;;;;;;;;;;;;20.84;49.76;102929.00;5018669;28;4251;-49
2022/04/16 05:43:25;;;;;;;;;;;;;;;20.84;49.93;102937.63;5016050;28;4510;-47
2022/04/16 05:45:52;;;;;;;;;;;;;;;20.83;49.78;102939.00;5014780;28;4085;-50
2022/04/16 05:48:18;;;;;;;;;;;;;;;20.86;49.78;102943.56;5015762;28;4263;-52
2022/04/16 05:50:45;;;;;;;;;;;;;;;20.86;49.73;102937.81;5016640;28;4326;-49
2022/04/16 05:53:11;;;;;;;;;;;;;;;20.86;49.60;102940.69;5007380;28;4848;-52
2022/04/16 05:55:38;;;;;;;;;;;;;;;20.85;49.54;102939.16;5015690;28;4538;-51
2022/04/16 05:58:05;;;;;;;;;;;;;;;20.90;49.45;102943.88;5009469;28;5278;-52
2022/04/16 06:00:31;;;;;;;;;;;;;;;20.90;49.28;102940.25;5010479;28;4517;-48
2022/04/16 06:02:57;;;;;;;;;;;;;;;20.88;48.71;102943.72;5010923;28;5303;-48
2022/04/16 06:05:24;;;;;;;;;;;;;;;20.86;47.90;102940.69;5011250;28;4506;-48
2022/04/16 06:07:51;;;;;;;;;;;;;;;20.85;47.76;102944.94;5012399;28;4096;-51
2022/04/16 06:10:17;;;;;;;;;;;;;;;20.83;47.43;102947.66;5010203;28;4597;-50
2022/04/16 06:12:43;;;;;;;;;;;;;;;20.80;46.84;102948.88;5013277;28;4196;-49
2022/04/16 06:15:10;;;;;;;;;;;;;;;20.80;46.97;102939.44;5012766;28;4237;-50
2022/04/16 06:17:36;;;;;;;;;;;;;;;20.81;46.83;102938.84;5007395;28;4264;-48
2022/04/16 06:20:04;;;;;;;;;;;;;;;20.79;46.29;102941.56;5008850;28;4133;-50
2022/04/16 06:22:30;;;;;;;;;;;;;;;20.80;46.19;102934.47;5009992;28;4119;-48
2022/04/16 06:24:56;;;;;;;;;;;;;;;20.81;46.24;102933.09;5011464;28;4279;-50
2022/04/16 06:27:23;;;;;;;;;;;;;;;20.84;46.71;102936.88;5009479;28;5167;-51
2022/04/16 06:29:49;;;;;;;;;;;;;;;20.91;46.76;102942.53;5010650;28;4137;-55
2022/04/16 06:32:15;;;;;;;;;;;;;;;20.89;46.27;102944.47;5009955;28;4412;-58
2022/04/16 06:34:42;;;;;;;;;;;;;;;19.77;39.40;102947.81;5014861;28;4198;-49
2022/04/16 06:37:08;;;;;;;;;;;;;;;20.02;39.72;102951.34;4970383;28;4055;-52
2022/04/16 06:39:34;;;;;;;;;;;;;;;20.32;40.91;102946.53;5001963;28;4590;-48
2022/04/16 06:42:01;;;;;;;;;;;;;;;20.51;42.66;102945.84;5014700;28;4985;-48
2022/04/16 06:44:27;;;;;;;;;;;;;;;20.60;43.50;102950.16;5017367;28;4517;-48
2022/04/16 06:46:54;;;;;;;;;;;;;;;20.67;44.21;102955.03;5016430;28;4076;-48
2022/04/16 06:49:21;;;;;;;;;;;;;;;20.67;44.80;102960.78;5016701;28;6189;-49
2022/04/16 06:51:47;;;;;;;;;;;;;;;20.72;45.03;102959.75;5018642;28;5421;-51
2022/04/16 06:54:13;;;;;;;;;;;;;;;20.69;45.47;102958.06;5018751;28;4494;-50
2022/04/16 06:56:40;;;;;;;;;;;;;;;20.73;45.47;102966.25;5016007;28;5463;-48
2022/04/16 06:59:09;;;;;;;;;;;;;;;20.77;45.63;102961.56;5014494;28;4471;-48
2022/04/16 07:01:35;;;;;;;;;;;;;;;20.77;45.99;102967.31;5016556;28;4181;-49
2022/04/16 07:04:01;;;;;;;;;;;;;;;20.77;46.01;102967.31;5016257;28;4503;-48
2022/04/16 07:06:28;;;;;;;;;;;;;;;20.78;46.12;102965.97;5016432;28;5134;-47
2022/04/16 07:08:54;;;;;;;;;;;;;;;20.79;46.15;102969.63;5015803;28;4474;-51
2022/04/16 07:11:20;;;;;;;;;;;;;;;20.80;46.08;102971.91;5017368;28;4515;-50
2022/04/16 07:13:47;;;;;;;;;;;;;;;20.82;46.34;102962.66;5012270;28;4180;-49
2022/04/16 07:16:13;;;;;;;;;;;;;;;20.85;46.37;102972.97;5014640;28;5776;-49
2022/04/16 07:18:40;;;;;;;;;;;;;;;20.87;46.24;102965.25;5018532;28;4248;-53
2022/04/16 07:21:06;;;;;;;;;;;;;;;20.87;46.31;102965.25;5017560;28;4572;-48
2022/04/16 07:23:32;;;;;;;;;;;;;;;20.89;46.29;102959.66;5013085;28;4066;-48
2022/04/16 07:25:59;;;;;;;;;;;;;;;20.90;46.27;102961.16;5014790;28;4203;-50
2022/04/16 07:28:25;;;;;;;;;;;;;;;20.96;46.38;102968.75;5015741;28;4261;-48
2022/04/16 07:30:52;;;;;;;;;;;;;;;20.93;46.31;102974.34;5016395;28;4221;-49
2022/04/16 07:33:18;;;;;;;;;;;;;;;20.96;46.31;102977.38;5014693;28;4098;-50
2022/04/16 07:35:44;;;;;;;;;;;;;;;20.96;46.50;102974.50;5016122;28;4555;-50
2022/04/16 07:38:11;;;;;;;;;;;;;;;20.97;46.47;102978.91;5015230;28;5242;-48
2022/04/16 07:40:37;;;;;;;;;;;;;;;20.98;46.51;102975.44;5017345;28;4261;-49
2022/04/16 07:43:03;;;;;;;;;;;;;;;20.98;46.65;102981.22;5013584;28;4484;-51
2022/04/16 07:45:30;;;;;;;;;;;;;;;21.01;46.39;102982.13;5012096;28;4475;-47
2022/04/16 07:47:56;;;;;;;;;;;;;;;21.01;46.63;102979.25;5016972;28;6104;-49
2022/04/16 07:50:23;;;;;;;;;;;;;;;21.01;46.62;102982.88;5013144;28;5627;-52
2022/04/16 07:52:49;;;;;;;;;;;;;;;21.00;46.74;102983.47;5005688;28;4306;-49
2022/04/16 07:55:15;;;;;;;;;;;;;;;20.80;45.59;102989.19;5009202;28;5446;-58
2022/04/16 07:57:42;;;;;;;;;;;;;;;20.83;46.42;102987.97;5013329;28;5193;-54
2022/04/16 08:00:09;;;;;;;;;;;;;;;20.91;46.35;102991.50;5009235;28;4253;-53
2022/04/16 08:02:38;;;;;;;;;;;;;;;20.98;46.21;102991.94;5014425;28;4255;-51
2022/04/16 08:05:05;;;;;;;;;;;;;;;20.81;44.21;102998.56;5011338;28;4202;-53
2022/04/16 08:07:32;;;;;;;;;;;;;;;20.60;44.25;102996.22;5010251;28;5358;-58
2022/04/16 08:09:58;;;;;;;;;;;;;;;20.33;40.81;102994.06;5013014;28;4025;-55
2022/04/16 08:12:27;;;;;;;;;;;;;;;20.53;42.23;102994.94;5006536;28;4211;-48
2022/04/16 08:14:54;;;;;;;;;;;;;;;20.74;44.72;103003.09;5003894;28;4254;-50
2022/04/16 08:17:20;;;;;;;;;;;;;;;20.83;44.65;103011.00;5012680;28;4207;-50
2022/04/16 08:19:46;;;;;;;;;;;;;;;20.91;44.59;103005.91;5014424;28;4211;-51
2022/04/16 08:22:18;;;;;;;;;;;;;;;20.88;44.68;102998.44;5010501;28;4617;-49
2022/04/16 08:24:54;;;;;;;;;;;;;;;20.91;44.65;103008.78;5010810;28;4115;-53
2022/04/16 08:27:21;;;;;;;;;;;;;;;20.80;44.24;103000.69;5005376;28;4264;-51
2022/04/16 08:29:47;;;;;;;;;;;;;;;20.75;44.50;102995.22;5006196;28;4218;-51
2022/04/16 08:32:13;;;;;;;;;;;;;;;20.84;44.96;102995.25;5008907;28;5428;-48
2022/04/16 08:34:48;;;;;;;;;;;;;;;20.95;44.50;102996.78;5008262;28;3994;-49
2022/04/16 08:37:15;;;;;;;;;;;;;;;21.00;44.98;102995.00;5015639;28;4371;-50
2022/04/16 08:39:41;;;;;;;;;;;;;;;21.08;44.95;102998.50;5016583;28;4193;-49
2022/04/16 08:42:08;;;;;;;;;;;;;;;21.07;45.02;103000.66;5013399;28;4262;-48
2022/04/16 08:44:35;;;;;;;;;;;;;;;21.14;45.15;103007.59;5013226;28;4115;-53
2022/04/16 08:47:01;;;;;;;;;;;;;;;21.19;45.26;103000.81;5011532;28;4248;-49
2022/04/16 08:49:27;;;;;;;;;;;;;;;21.19;45.05;102988.50;4999430;28;4217;-52
2022/04/16 08:51:55;;;;;;;;;;;;;;;21.21;45.25;102986.56;5015241;28;4256;-50
2022/04/16 08:54:21;;;;;;;;;;;;;;;21.24;45.28;102999.00;5018075;28;4239;-50
2022/04/16 08:56:48;;;;;;;;;;;;;;;21.26;45.25;102999.16;4999651;28;4106;-49
2022/04/16 08:59:14;;;;;;;;;;;;;;;21.30;45.54;103003.13;5012448;28;4574;-52
2022/04/16 09:01:40;;;;;;;;;;;;;;;21.33;45.71;103004.03;5015073;28;4749;-49
2022/04/16 09:04:07;;;;;;;;;;;;;;;21.36;45.62;103002.06;5008732;28;4300;-49
2022/04/16 09:06:33;;;;;;;;;;;;;;;21.38;45.70;103005.09;4994075;28;4624;-51
2022/04/16 09:09:12;;;;;;;;;;;;;;;21.38;45.72;102994.31;5012727;28;4056;-50
2022/04/16 09:11:42;;;;;;;;;;;;;;;21.41;46.12;102993.13;5017898;28;4385;-54
2022/04/16 09:14:09;;;;;;;;;;;;;;;21.44;46.18;102989.06;5011024;28;5274;-52
2022/04/16 09:16:37;;;;;;;;;;;;;;;21.43;46.38;102990.41;5015862;28;4190;-51
2022/04/16 09:19:03;;;;;;;;;;;;;;;21.44;46.64;102985.41;4991958;28;5257;-56
2022/04/16 09:21:29;;;;;;;;;;;;;;;21.45;46.80;102993.44;5012331;28;4575;-53
2022/04/16 09:23:59;;;;;;;;;;;;;;;21.44;47.30;102989.06;5012860;28;4119;-51
2022/04/16 09:26:26;;;;;;;;;;;;;;;21.43;47.19;102992.53;5013054;28;5786;-52
2022/04/16 09:28:53;;;;;;;;;;;;;;;21.43;47.31;102983.88;5012639;28;4178;-53
2022/04/16 09:31:24;;;;;;;;;;;;;;;21.45;47.41;102987.69;5009744;28;4246;-58
2022/04/16 09:33:50;;;;;;;;;;;;;;;21.29;44.86;102984.28;4996174;28;4276;-54
2022/04/16 09:36:26;;;;;;;;;;;;;;;21.08;43.08;102987.00;5011179;28;5392;-54
2022/04/16 09:39:02;;;;;;;;;;;;;;;21.02;41.37;102986.50;5011512;28;4199;-53
2022/04/16 09:41:34;;;;;;;;;;;;;;;20.94;41.10;102983.78;5008961;28;4421;-54
2022/04/16 09:44:01;;;;;;;;;;;;;;;21.00;42.08;102984.22;5010055;28;4166;-53
2022/04/16 09:46:28;;;;;;;;;;;;;;;21.07;42.02;102994.09;5009254;28;5298;-54
2022/04/16 09:49:00;;;;;;;;;;;;;;;21.14;43.68;102990.31;5006502;28;4403;-54
2022/04/16 09:51:26;;;;;;;;;;;;;;;21.16;43.88;102987.59;5008400;28;5295;-53
2022/04/16 09:53:52;;;;;;;;;;;;;;;21.18;43.84;102982.00;5008848;28;4451;-51
2022/04/16 09:56:19;;;;;;;;;;;;;;;21.19;43.93;102983.53;5010335;28;6245;-54
2022/04/16 09:58:51;;;;;;;;;;;;;;;21.20;44.12;102990.78;4989916;28;4192;-53
2022/04/16 10:01:18;;;;;;;;;;;;;;;21.22;44.04;102988.06;5010525;28;4141;-51
2022/04/16 10:03:45;;;;;;;;;;;;;;;21.21;44.28;102986.56;5010156;28;4201;-51
2022/04/16 10:06:11;;;;;;;;;;;;;;;21.22;44.59;102987.31;5007795;28;4060;-54
2022/04/16 10:08:39;;;;;;;;;;;;;;;21.22;44.74;102993.09;5011518;28;4153;-51
2022/04/16 10:11:07;;;;;;;;;;;;;;;21.21;44.80;102986.56;5003892;28;4148;-51
2022/04/16 10:13:36;;;;;;;;;;;;;;;21.21;44.92;102986.56;4990240;28;4137;-50
2022/04/16 10:16:09;;;;;;;;;;;;;;;21.24;44.72;102988.22;5012127;28;4168;-53
2022/04/16 10:18:36;;;;;;;;;;;;;;;21.22;44.94;102988.06;5014784;28;4220;-53
2022/04/16 10:21:02;;;;;;;;;;;;;;;21.23;44.91;102989.59;4991480;28;5290;-53
2022/04/16 10:23:36;;;;;;;;;;;;;;;21.21;45.09;102989.44;5006331;28;4081;-54
2022/04/16 10:26:03;;;;;;;;;;;;;;;21.23;45.20;102989.59;5013561;28;4395;-54
2022/04/16 10:28:36;;;;;;;;;;;;;;;21.20;45.26;102985.03;5012909;28;4401;-54
2022/04/16 10:31:03;;;;;;;;;;;;;;;21.20;45.19;102985.03;5013756;28;4084;-61
2022/04/16 10:33:31;;;;;;;;;;;;;;;21.20;45.35;102982.16;5012027;28;4263;-55
2022/04/16 10:35:58;;;;;;;;;;;;;;;21.20;45.37;102985.03;5014929;28;4259;-54
2022/04/16 10:38:46;;;;;;;;;;;;;;;21.20;45.53;102979.28;5003033;28;5337;-53
2022/04/16 10:41:13;;;;;;;;;;;;;;;21.19;45.53;102972.00;5013744;28;4011;-53
2022/04/16 10:44:00;;;;;;;;;;;;;;;21.21;45.48;102977.16;5008337;28;4262;-51
2022/04/16 10:46:44;;;;;;;;;;;;;;;21.20;45.79;102976.41;5006542;28;5349;-54
2022/04/16 10:49:11;;;;;;;;;;;;;;;21.18;45.66;102973.34;5008732;28;4298;-54
2022/04/16 10:51:37;;;;;;;;;;;;;;;21.17;45.80;102974.72;5013323;28;4078;-54
2022/04/16 10:54:10;;;;;;;;;;;;;;;21.18;45.75;102970.47;5007541;28;4256;-53
2022/04/16 10:56:39;;;;;;;;;;;;;;;21.18;45.81;102969.72;4999666;28;4245;-53
2022/04/16 10:59:07;;;;;;;;;;;;;;;21.18;45.83;102964.72;5000971;28;5254;-55
2022/04/16 11:01:34;;;;;;;;;;;;;;;21.19;46.36;102969.13;5006845;28;5236;-54
2022/04/16 11:04:10;;;;;;;;;;;;;;;21.20;45.88;102964.13;5013067;28;4132;-54
2022/04/16 11:06:36;;;;;;;;;;;;;;;21.23;46.04;102966.53;5014583;28;4374;-55
2022/04/16 11:09:03;;;;;;;;;;;;;;;21.11;44.90;102959.84;5016964;28;4272;-67
2022/04/16 11:11:29;;;;;;;;;;;;;;;20.98;43.02;102966.81;5010253;28;4529;-55
2022/04/16 11:13:56;;;;;;;;;;;;;;;20.98;43.05;102957.38;5012017;28;4336;-54
2022/04/16 11:16:22;;;;;;;;;;;;;;;21.05;44.66;102968.00;5011382;28;5234;-54
2022/04/16 11:18:48;;;;;;;;;;;;;;;21.09;45.48;102956.81;5014954;28;4276;-55
2022/04/16 11:21:20;;;;;;;;;;;;;;;21.11;45.29;102960.59;5014397;28;4165;-54
2022/04/16 11:23:47;;;;;;;;;;;;;;;21.13;45.00;102963.63;5007943;28;5354;-54
2022/04/16 11:34:43;;;;;;;;;;;;;;;21.12;44.98;102967.13;5014188;28;4190;-54
2022/04/16 11:37:29;;;;;;;;;;;;;;;21.12;45.10;102961.38;5013364;28;5088;-55
2022/04/16 11:39:59;;;;;;;;;;;;;;;21.11;44.97;102969.25;5014356;28;4411;-55
2022/04/16 11:42:26;;;;;;;;;;;;;;;21.12;44.93;102972.91;5010822;28;4216;-57
2022/04/16 11:44:53;;;;;;;;;;;;;;;21.02;44.26;102969.22;5011426;28;5342;-53
2022/04/16 11:47:26;;;;;;;;;;;;;;;20.89;40.13;102968.28;5010337;28;6102;-52
2022/04/16 11:49:53;;;;;;;;;;;;;;;20.70;37.17;102968.22;5015565;28;5588;-54
2022/04/16 11:52:29;;;;;;;;;;;;;;;20.60;36.43;102967.44;5014968;28;5627;-52
2022/04/16 11:55:14;;;;;;;;;;;;;;;20.44;34.57;102964.75;5013421;28;4119;-54
2022/04/16 11:57:43;;;;;;;;;;;;;;;20.30;33.46;102969.38;5011701;28;4199;-54
2022/04/16 12:00:11;;;;;;;;;;;;;;;20.13;32.38;102966.53;5015608;28;4489;-53
2022/04/16 12:02:38;;;;;;;;;;;;;;;20.16;31.30;102960.38;5017077;28;4236;-54
2022/04/16 12:05:10;;;;;;;;;;;;;;;20.22;31.68;102965.84;5017618;28;4227;-54
2022/04/16 12:07:39;;;;;;;;;;;;;;;20.23;30.85;102976.00;5012948;28;5331;-52
2022/04/16 12:10:05;;;;;;;;;;;;;;;20.16;30.98;102971.09;5011433;28;4239;-55
2022/04/16 12:12:40;;;;;;;;;;;;;;;19.97;29.68;102957.34;5014577;28;4445;-55
2022/04/16 12:15:06;;;;;;;;;;;;;;;19.99;29.37;102960.41;5013472;28;4198;-60
2022/04/16 12:17:34;;;;;;;;;;;;;;;19.91;29.92;102951.88;5012118;28;4488;-59
2022/04/16 12:20:04;;;;;;;;;;;;;;;19.86;28.97;102955.78;5015077;28;4341;-59
2022/04/16 12:22:30;;;;;;;;;;;;;;;19.69;28.64;102947.16;5012712;28;4191;-59
2022/04/16 12:25:06;;;;;;;;;;;;;;;19.55;28.77;102953.22;5012824;28;4050;-59
2022/04/16 12:27:32;;;;;;;;;;;;;;;19.73;28.09;102959.75;5015026;28;5287;-49
2022/04/16 12:29:59;;;;;;;;;;;;;;;19.74;28.38;102960.50;5011418;28;4255;-55
2022/04/16 12:32:26;;;;;;;;;;;;;;;19.82;28.13;102959.06;5012646;28;4085;-56
2022/04/16 12:34:52;;;;;;;;;;;;;;;19.88;28.96;102950.16;5013749;28;3993;-56
2022/04/16 12:37:19;;;;;;;;;;;;;;;19.83;28.50;102945.44;5011777;28;4051;-52
2022/04/16 12:39:45;;;;;;;;;;;;;;;19.75;27.26;102953.44;5012089;28;4157;-57
2022/04/16 12:42:12;;;;;;;;;;;;;;;19.93;28.22;102952.03;5014307;28;4240;-56
2022/04/16 12:44:38;;;;;;;;;;;;;;;20.14;30.75;102947.94;5015078;28;4238;-58
2022/04/16 12:47:04;;;;;;;;;;;;;;;20.17;30.16;102946.72;5002110;28;6238;-59
2022/04/16 12:49:33;;;;;;;;;;;;;;;20.09;30.82;102944.72;5013038;28;4094;-59
2022/04/16 12:51:59;;;;;;;;;;;;;;;20.08;30.04;102940.31;5013288;28;4158;-59
2022/04/16 12:54:26;;;;;;;;;;;;;;;20.06;29.31;102943.03;4997851;28;4259;-59
2022/04/16 12:56:52;;;;;;;;;;;;;;;20.17;30.08;102941.72;5010324;28;4188;-58
2022/04/16 12:59:18;;;;;;;;;;;;;;;20.20;30.03;102936.91;5008278;28;4308;-58
2022/04/16 13:01:45;;;;;;;;;;;;;;;20.22;30.25;102934.94;5009357;28;4094;-58
2022/04/16 13:04:11;;;;;;;;;;;;;;;20.28;30.30;102934.69;4998939;28;4587;-57
2022/04/16 13:06:38;;;;;;;;;;;;;;;20.29;29.92;102939.84;5015930;28;4600;-56
2022/04/16 13:09:04;;;;;;;;;;;;;;;20.30;30.00;102934.84;5012816;28;4320;-54
2022/04/16 13:11:31;;;;;;;;;;;;;;;20.32;29.75;102935.00;5012542;28;5508;-57